Terminal Aerodrome Forecast
Issued by NWS Omaha/Valley, NE

Home | Current Version | Previous Version | Text Only | Print | Product List | Glossary On
Versions: 1 2 3 4 5 6 7 8 9 10 11 12 13 14 15
000
FTUS43 KOAX 262322
TAFOMA
TAF
KOMA 262322Z 2700/2724 13005KT P6SM SCT250
     FM271500 16005KT P6SM VCSH SCT100 BKN200
     FM271700 16005KT P6SM BKN250=

USA.gov is the U.S. government's official web portal to all federal, state and local government web resources and services.